createdAt,value
2018-11-02T00:04:33.124Z,17.97
2018-11-02T00:10:28.102Z,16.01
2018-11-02T00:16:23.093Z,12.36
2018-11-02T00:22:18.127Z,11.28
2018-11-02T00:28:13.115Z,9.01
2018-11-02T00:34:08.105Z,7.7
2018-11-02T00:40:03.144Z,7.56
2018-11-02T00:45:58.138Z,6.9
2018-11-02T00:51:53.110Z,7.02
2018-11-02T00:57:48.176Z,6.52
2018-11-02T01:03:43.144Z,8.55
2018-11-02T01:09:38.151Z,11.57
2018-11-02T01:15:33.143Z,11.6
2018-11-02T01:21:28.152Z,13.24
2018-11-02T01:27:23.153Z,13.85
2018-11-02T01:33:18.160Z,15.74
2018-11-02T01:39:13.136Z,14.41
2018-11-02T01:45:08.203Z,13.17
2018-11-02T01:51:03.155Z,13.75
2018-11-02T01:56:58.166Z,13.03
2018-11-02T02:02:53.158Z,12.17
2018-11-02T02:08:48.221Z,10.53
2018-11-02T02:14:43.205Z,12.06
2018-11-02T02:20:38.232Z,10.79
2018-11-02T02:26:33.190Z,10.15
2018-11-02T02:32:28.209Z,10.78
2018-11-02T02:38:23.219Z,11.49
2018-11-02T02:44:18.184Z,9.9
2018-11-02T02:50:13.226Z,9.8
2018-11-02T02:56:08.225Z,8.96
2018-11-02T03:02:03.296Z,8.2
2018-11-02T03:07:58.264Z,9.01
2018-11-02T03:13:53.254Z,8.68
2018-11-02T03:19:48.233Z,8.7
2018-11-02T03:25:43.314Z,6.57
2018-11-02T03:31:38.281Z,3.97
2018-11-02T03:37:33.241Z,7.73
2018-11-02T03:43:28.228Z,5.91
2018-11-02T03:49:23.307Z,4.72
2018-11-02T03:55:18.255Z,6.36
2018-11-02T04:01:13.256Z,5.03
2018-11-02T04:07:08.256Z,2.99
2018-11-02T04:13:03.254Z,2.46
2018-11-02T04:18:58.277Z,2.43
2018-11-02T04:24:53.275Z,2.85
2018-11-02T04:30:48.316Z,2.73
2018-11-02T04:36:43.289Z,2.84
2018-11-02T04:42:38.270Z,2.29
2018-11-02T04:48:33.292Z,1.99
2018-11-02T04:54:28.277Z,2.97
2018-11-02T05:00:23.336Z,2.16
2018-11-02T05:06:18.340Z,3.15
2018-11-02T05:12:13.302Z,2.7
2018-11-02T05:18:08.299Z,3.8
2018-11-02T05:24:03.308Z,6.42
2018-11-02T05:29:58.343Z,7.86
2018-11-02T05:35:53.317Z,11.31
2018-11-02T05:41:48.345Z,11.25
2018-11-02T05:47:43.370Z,11.89
2018-11-02T05:53:38.335Z,10.94
2018-11-02T05:59:33.348Z,6.76
2018-11-02T06:05:28.332Z,9.11
2018-11-02T06:11:23.324Z,6
2018-11-02T06:17:18.352Z,9.43
2018-11-02T06:23:13.372Z,14.48
2018-11-02T06:29:08.408Z,14.54
2018-11-02T06:35:03.365Z,13.83
2018-11-02T06:40:58.369Z,12.27
2018-11-02T06:46:53.365Z,13.89
2018-11-02T06:52:48.393Z,12.84
2018-11-02T06:58:43.382Z,10.86
2018-11-02T07:04:38.387Z,8.85
2018-11-02T07:10:33.393Z,7.01
2018-11-02T07:16:28.422Z,3.63
2018-11-02T07:22:23.411Z,2.33
2018-11-02T07:28:18.386Z,1.06
2018-11-02T07:34:13.464Z,1
2018-11-02T07:40:08.433Z,1.38
2018-11-02T07:46:03.377Z,1.29
2018-11-02T07:51:58.439Z,2.16
2018-11-02T07:57:53.422Z,2.91
2018-11-02T08:03:48.435Z,1.32
2018-11-02T08:09:43.415Z,0.83
2018-11-02T08:15:38.419Z,0.63
2018-11-02T08:21:33.412Z,0.76
2018-11-02T08:27:28.418Z,0.67
2018-11-02T08:33:23.525Z,0.6
2018-11-02T08:39:18.454Z,1.23
2018-11-02T08:45:13.440Z,2.2
2018-11-02T08:51:08.422Z,3.9
2018-11-02T08:57:03.432Z,5.39
2018-11-02T09:02:58.468Z,4.68
2018-11-02T09:08:53.444Z,4.98
2018-11-02T09:14:48.461Z,4.91
2018-11-02T09:20:43.451Z,4.39
2018-11-02T09:26:38.484Z,5.93
2018-11-02T09:32:33.507Z,4.65
2018-11-02T09:38:28.481Z,5.3
2018-11-02T09:44:23.470Z,5.5
2018-11-02T09:50:18.480Z,5.53
2018-11-02T09:56:13.513Z,5.64
2018-11-02T10:02:08.711Z,6.95
2018-11-02T10:08:03.495Z,6.08
2018-11-02T10:13:58.524Z,5
2018-11-02T10:19:53.486Z,5.24
2018-11-02T10:25:48.507Z,4.73
2018-11-02T10:31:43.522Z,4.83
2018-11-02T10:37:38.504Z,4.73
2018-11-02T10:43:33.528Z,3.83
2018-11-02T10:49:28.709Z,3.82
2018-11-02T10:55:23.551Z,3.98
2018-11-02T11:01:18.571Z,3.59
2018-11-02T11:07:13.544Z,0.97
2018-11-02T11:13:08.809Z,2.08
2018-11-02T11:19:03.556Z,2.22
2018-11-02T11:24:58.561Z,1.22
2018-11-02T11:30:53.541Z,0.95
2018-11-02T11:36:48.670Z,0.71
2018-11-02T11:42:43.574Z,0.74
2018-11-02T11:48:38.594Z,0.75
2018-11-02T11:54:33.609Z,1.2
2018-11-02T12:00:28.569Z,0.76
2018-11-02T12:06:23.560Z,0.6
2018-11-02T12:12:18.584Z,0.82
2018-11-02T12:18:13.562Z,0.73
2018-11-02T12:24:08.581Z,0.62
2018-11-02T12:30:03.627Z,0.54
2018-11-02T12:35:58.599Z,0.53
2018-11-02T12:41:53.618Z,0.6
2018-11-02T12:47:48.716Z,0.5
2018-11-02T12:53:43.664Z,0.5
2018-11-02T12:59:38.602Z,0.65
2018-11-02T13:05:33.646Z,0.6
2018-11-02T13:11:28.634Z,0.56
2018-11-02T13:17:23.693Z,0.57
2018-11-02T13:23:18.629Z,0.5
2018-11-02T13:29:13.680Z,0.61
2018-11-02T13:35:08.636Z,0.57
2018-11-02T13:41:03.627Z,0.73
2018-11-02T13:46:58.627Z,0.66
2018-11-02T13:52:53.681Z,0.53
2018-11-02T13:58:48.695Z,0.63
2018-11-02T14:04:43.661Z,1.06
2018-11-02T14:10:38.667Z,0.61
2018-11-02T14:16:33.704Z,2.25
2018-11-02T14:22:28.668Z,1.45
2018-11-02T14:28:23.710Z,12.06
2018-11-02T14:34:18.659Z,8.94
2018-11-02T14:40:13.665Z,3.54
2018-11-02T14:46:08.674Z,2.92
2018-11-02T14:52:03.666Z,6.56
2018-11-02T14:57:58.695Z,2.76
2018-11-02T15:03:53.721Z,3.79
2018-11-02T15:09:48.720Z,3.49
2018-11-02T15:15:43.693Z,3.66
2018-11-02T15:21:38.706Z,2.8
2018-11-02T15:27:33.718Z,2.56
2018-11-02T15:33:28.708Z,2.15
2018-11-02T15:39:23.728Z,8.36
2018-11-02T15:45:18.746Z,8.04
2018-11-02T15:51:13.736Z,6.36
2018-11-02T15:57:08.746Z,15.03
2018-11-02T16:03:03.728Z,16.26
2018-11-02T16:08:58.731Z,11.61
2018-11-02T16:14:53.737Z,5.1
2018-11-02T16:20:48.775Z,6.53
2018-11-02T16:26:43.765Z,6.44
2018-11-02T16:32:38.742Z,9.2
2018-11-02T16:38:33.748Z,4.18
2018-11-02T16:44:28.847Z,6.67
2018-11-02T16:50:23.819Z,11.37
2018-11-02T16:56:18.762Z,27.42
2018-11-02T17:02:13.769Z,28.74
2018-11-02T17:08:08.796Z,36.9
2018-11-02T17:14:03.776Z,30.92
2018-11-02T17:19:58.801Z,19.73
2018-11-02T17:25:53.783Z,14.48
2018-11-02T17:31:48.800Z,5.36
2018-11-02T17:37:43.820Z,3.17
2018-11-02T17:43:38.876Z,1.5
2018-11-02T17:49:33.802Z,3.2
2018-11-02T17:55:28.796Z,1.31
2018-11-02T18:01:23.880Z,1.35
2018-11-02T18:07:18.832Z,3.21
2018-11-02T18:13:13.814Z,5.73
2018-11-02T18:19:08.815Z,4.4
2018-11-02T18:25:03.834Z,6.36
2018-11-02T18:30:58.863Z,4.05
2018-11-02T18:36:53.875Z,1.89
2018-11-02T18:42:48.858Z,3.69
2018-11-02T18:48:43.836Z,1.59
2018-11-02T18:54:38.888Z,1.44
2018-11-02T19:00:33.942Z,1.3
2018-11-02T19:06:28.868Z,1.3
2018-11-02T19:12:23.865Z,2.49
2018-11-02T19:18:18.858Z,2.62
2018-11-02T19:24:13.868Z,1.37
2018-11-02T19:30:08.881Z,6.44
2018-11-02T19:36:03.864Z,6.79
2018-11-02T19:41:58.914Z,6.13
2018-11-02T19:47:53.875Z,6.11
2018-11-02T19:53:48.886Z,4.84
2018-11-02T19:59:43.885Z,7.22
2018-11-02T20:05:38.902Z,4.73
2018-11-02T20:11:33.898Z,6.75
2018-11-02T20:17:28.896Z,5.88
2018-11-02T20:23:23.914Z,7
2018-11-02T20:29:18.918Z,6.35
2018-11-02T20:35:13.913Z,5.2
2018-11-02T20:41:08.933Z,1.4
2018-11-02T20:47:03.946Z,3.86
2018-11-02T20:52:58.946Z,5.33
2018-11-02T20:58:53.924Z,9.32
2018-11-02T21:04:48.919Z,6.34
2018-11-02T21:10:44.052Z,6.42
2018-11-02T21:16:38.949Z,6.67
2018-11-02T21:22:33.934Z,5.42
2018-11-02T21:28:28.964Z,4.06
2018-11-02T21:34:23.974Z,4.42
2018-11-02T21:40:18.954Z,3.58
2018-11-02T21:46:13.990Z,4.43
2018-11-02T21:52:08.970Z,3.79
2018-11-02T21:58:03.985Z,7.03
2018-11-02T22:03:58.985Z,7.14
2018-11-02T22:09:53.970Z,8.4
2018-11-02T22:15:48.988Z,8.53
2018-11-02T22:21:43.998Z,6.9
2018-11-02T22:27:39.025Z,7.2
2018-11-02T22:33:34.005Z,6.39
2018-11-02T22:39:28.998Z,6.27
2018-11-02T22:45:24.005Z,5.61
2018-11-02T22:51:19.017Z,5.21
2018-11-02T22:57:14.000Z,4.78
2018-11-02T23:03:09.039Z,4.28
2018-11-02T23:09:04.045Z,3.96
2018-11-02T23:14:59.017Z,3.98
2018-11-02T23:20:54.041Z,4.44
2018-11-02T23:26:49.027Z,3.38
2018-11-02T23:32:44.075Z,4.06
2018-11-02T23:38:39.037Z,4.13
2018-11-02T23:44:34.040Z,4.18
2018-11-02T23:50:29.049Z,2.92
2018-11-02T23:56:24.123Z,3.76
